Klaipėda, Lithuania

09:57 PM EEST on balandžio 21, 2018 (GMT +0300)
Sausio 15-osios gatvė | | Change Station

Elev 22 ft 55.70 °N, 21.14 °E | Updated 31 seconds ago

Geras oras
Geras oras
44.1 °F
Feels Like 44 °F
N
1.9
Vėjas nepastovus Vėjas from Vakarų
Gusts 4.3 mph

Šiandien
High -- | Low -- °F
--% Chance of Precip.
Yesterday
High -- | Low -- °F
Precip. -- in
Slėgis 29.92 in
Matomumas 6.2 mylios
Debesys
Šaltas vėjas 44 °F
Rasos taškas 39 °F
Drėgmė 81%
Krituliai 0.00 in
Sniego dangos storis Not available.
6:16 AM 8:53 PM
Priešpilnis mėnulis, 37% visible
METAR EVLA 211850Z AUTO 19003KT 9999 NCD 05/04 Q1013
Slėgis 29.92 in
Matomumas 6.2 mylios
Debesys
Šaltas vėjas 44 °F
Rasos taškas 39 °F
Drėgmė 81%
Krituliai 0.00 in
Sniego dangos storis Not available.
6:16 AM 8:53 PM
Priešpilnis mėnulis, 37% visible
METAR EVLA 211850Z AUTO 19003KT 9999 NCD 05/04 Q1013

Get Severe Weather Alerts

Thanks for signing up!

Be on the lookout for a verification email in your inbox.

You'll start receiving the daily forecast at 6 AM.

×

10-Day Weather Forecast

×

Almanac

Astronomija

Apr. 21, 2018 Rise Set
Vietos laikas
Dienos šviesa
Jūrinė diena
Astronominė diena
Mėnulis
Matomos šviesos trukmė
Dienos ilgis
Tomorrow will be .
, % of the Moon is Illuminated

Šiandienos maksimumai

Country Highs Country Lows

Community

WunderPhotos

Category 6

Welcome to Category 6. This is the collective home for Weather Underground's featured writeups by Dr. Jeff Masters (right), Bob Henson (left), Chris Burt, and other regular contributors.

Nearby

Air Quality

  Air Quality AQ Index Pollutant
Not available.

Sniego danga

Station Depth Elevation

Earthquake Activity

Miestas Distance Mag. Time & Date
Minimum magnitude displayed is 2.5.

Coastal Water Temperatures

Vieta Temperatūra

Stations

Nearby Weather Stations

Station Location Temp Šaltas vėjas Rasos taškas Drėgmė Vėjas Precip. Elev Duomenys papildyti Type